sensor_id;sensor_type;location;lat;lon;timestamp;pressure;altitude;pressure_sealevel;temperature;humidity
34979;BME280;21185;50.978;13.720;2023-05-11T00:03:32;98041.06;;;15.49;58.58
34979;BME280;21185;50.978;13.720;2023-05-11T00:08:34;98033.22;;;15.43;58.59
34979;BME280;21185;50.978;13.720;2023-05-11T00:13:36;98039.44;;;15.35;58.50
34979;BME280;21185;50.978;13.720;2023-05-11T00:18:38;98033.56;;;15.27;58.62
34979;BME280;21185;50.978;13.720;2023-05-11T00:23:40;98039.59;;;15.20;58.75
34979;BME280;21185;50.978;13.720;2023-05-11T00:28:42;98036.75;;;15.15;58.71
34979;BME280;21185;50.978;13.720;2023-05-11T00:33:46;98024.91;;;15.13;58.73
34979;BME280;21185;50.978;13.720;2023-05-11T00:38:47;98025.50;;;15.08;58.87
34979;BME280;21185;50.978;13.720;2023-05-11T00:43:50;98023.25;;;15.05;58.86
34979;BME280;21185;50.978;13.720;2023-05-11T00:48:52;98029.69;;;15.03;58.91
34979;BME280;21185;50.978;13.720;2023-05-11T00:53:54;98026.47;;;15.01;58.90
34979;BME280;21185;50.978;13.720;2023-05-11T00:58:57;98030.09;;;15.00;58.93
34979;BME280;21185;50.978;13.720;2023-05-11T01:03:58;98025.06;;;14.98;58.89
34979;BME280;21185;50.978;13.720;2023-05-11T01:09:26;98028.06;;;14.95;59.16
34979;BME280;21185;50.978;13.720;2023-05-11T01:19:46;98033.66;;;14.85;59.06
34979;BME280;21185;50.978;13.720;2023-05-11T01:30:34;98023.16;;;14.79;59.05
34979;BME280;21185;50.978;13.720;2023-05-11T01:35:48;98031.19;;;14.77;58.97
34979;BME280;21185;50.978;13.720;2023-05-11T01:40:54;98031.81;;;14.79;59.17
34979;BME280;21185;50.978;13.720;2023-05-11T01:46:00;98035.44;;;14.78;59.11
34979;BME280;21185;50.978;13.720;2023-05-11T01:51:03;98032.59;;;14.73;58.95
34979;BME280;21185;50.978;13.720;2023-05-11T01:56:06;98032.38;;;14.68;59.16
34979;BME280;21185;50.978;13.720;2023-05-11T02:01:10;98032.34;;;14.62;59.37
34979;BME280;21185;50.978;13.720;2023-05-11T02:06:14;98035.53;;;14.57;59.48
34979;BME280;21185;50.978;13.720;2023-05-11T02:11:21;98036.72;;;14.54;59.52
34979;BME280;21185;50.978;13.720;2023-05-11T02:16:25;98039.53;;;14.53;59.71
34979;BME280;21185;50.978;13.720;2023-05-11T02:21:31;98040.28;;;14.47;59.49
34979;BME280;21185;50.978;13.720;2023-05-11T02:26:33;98035.00;;;14.40;59.42
34979;BME280;21185;50.978;13.720;2023-05-11T02:31:41;98038.38;;;14.34;59.59
34979;BME280;21185;50.978;13.720;2023-05-11T02:36:51;98039.13;;;14.28;59.36
34979;BME280;21185;50.978;13.720;2023-05-11T02:41:57;98041.31;;;14.24;59.31
34979;BME280;21185;50.978;13.720;2023-05-11T02:47:03;98038.47;;;14.19;59.27
34979;BME280;21185;50.978;13.720;2023-05-11T02:52:09;98041.66;;;14.15;59.31
34979;BME280;21185;50.978;13.720;2023-05-11T02:57:18;98037.63;;;14.12;59.34
34979;BME280;21185;50.978;13.720;2023-05-11T03:02:20;98037.81;;;14.11;59.34
34979;BME280;21185;50.978;13.720;2023-05-11T03:07:23;98043.59;;;14.06;59.48
34979;BME280;21185;50.978;13.720;2023-05-11T03:12:25;98042.00;;;14.05;59.68
34979;BME280;21185;50.978;13.720;2023-05-11T03:17:33;98041.00;;;14.06;59.82
34979;BME280;21185;50.978;13.720;2023-05-11T03:22:37;98042.22;;;14.10;59.92
34979;BME280;21185;50.978;13.720;2023-05-11T03:27:42;98042.66;;;14.14;60.02
34979;BME280;21185;50.978;13.720;2023-05-11T03:32:45;98043.47;;;14.14;60.06
34979;BME280;21185;50.978;13.720;2023-05-11T03:37:47;98032.84;;;14.16;60.28
34979;BME280;21185;50.978;13.720;2023-05-11T03:42:53;98038.88;;;14.16;60.40
34979;BME280;21185;50.978;13.720;2023-05-11T03:47:58;98039.84;;;14.15;60.41
34979;BME280;21185;50.978;13.720;2023-05-11T03:53:01;98038.47;;;14.19;60.25
34979;BME280;21185;50.978;13.720;2023-05-11T03:58:08;98043.31;;;14.22;60.51
34979;BME280;21185;50.978;13.720;2023-05-11T04:03:10;98042.91;;;14.19;60.51
34979;BME280;21185;50.978;13.720;2023-05-11T04:08:13;98042.91;;;14.19;60.65
34979;BME280;21185;50.978;13.720;2023-05-11T04:13:16;98047.53;;;14.23;60.58
34979;BME280;21185;50.978;13.720;2023-05-11T04:18:18;98043.31;;;14.22;60.66
34979;BME280;21185;50.978;13.720;2023-05-11T04:23:20;98046.06;;;14.14;60.75
34979;BME280;21185;50.978;13.720;2023-05-11T04:28:22;98045.66;;;14.11;60.81
34979;BME280;21185;50.978;13.720;2023-05-11T04:33:29;98043.47;;;14.14;60.92
34979;BME280;21185;50.978;13.720;2023-05-11T04:38:32;98046.69;;;14.16;61.08
34979;BME280;21185;50.978;13.720;2023-05-11T04:43:35;98042.94;;;14.25;60.79
34979;BME280;21185;50.978;13.720;2023-05-11T04:48:37;98047.81;;;14.35;60.69
34979;BME280;21185;50.978;13.720;2023-05-11T04:53:38;98045.91;;;14.44;60.83
34979;BME280;21185;50.978;13.720;2023-05-11T04:58:41;98039.91;;;14.50;60.90
34979;BME280;21185;50.978;13.720;2023-05-11T05:03:47;98050.19;;;14.58;60.76
34979;BME280;21185;50.978;13.720;2023-05-11T05:08:49;98042.38;;;14.65;60.90
34979;BME280;21185;50.978;13.720;2023-05-11T05:13:53;98045.66;;;14.73;60.62
34979;BME280;21185;50.978;13.720;2023-05-11T05:18:56;98054.53;;;14.85;60.85
34979;BME280;21185;50.978;13.720;2023-05-11T05:23:58;98055.78;;;14.96;60.71
34979;BME280;21185;50.978;13.720;2023-05-11T05:29:00;98057.03;;;15.07;60.42
34979;BME280;21185;50.978;13.720;2023-05-11T05:34:03;98052.84;;;15.19;60.36
34979;BME280;21185;50.978;13.720;2023-05-11T05:39:05;98056.50;;;15.31;60.49
34979;BME280;21185;50.978;13.720;2023-05-11T05:44:13;98059.16;;;15.44;60.43
34979;BME280;21185;50.978;13.720;2023-05-11T05:49:16;98065.84;;;15.60;60.12
34979;BME280;21185;50.978;13.720;2023-05-11T05:54:18;98075.28;;;15.68;60.02
34979;BME280;21185;50.978;13.720;2023-05-11T05:59:20;98069.66;;;15.71;60.09
34979;BME280;21185;50.978;13.720;2023-05-11T06:04:28;98067.25;;;15.76;60.09
34979;BME280;21185;50.978;13.720;2023-05-11T06:09:31;98072.09;;;15.79;60.01
34979;BME280;21185;50.978;13.720;2023-05-11T06:14:32;98072.91;;;15.86;60.01
34979;BME280;21185;50.978;13.720;2023-05-11T06:19:36;98075.50;;;15.99;59.83
34979;BME280;21185;50.978;13.720;2023-05-11T06:24:39;98071.28;;;16.11;59.64
34979;BME280;21185;50.978;13.720;2023-05-11T06:29:42;98072.09;;;16.25;59.59
34979;BME280;21185;50.978;13.720;2023-05-11T06:34:45;98065.22;;;16.37;59.59
34979;BME280;21185;50.978;13.720;2023-05-11T06:39:48;98072.06;;;16.45;59.21
34979;BME280;21185;50.978;13.720;2023-05-11T06:44:50;98069.63;;;16.57;58.94
34979;BME280;21185;50.978;13.720;2023-05-11T06:49:52;98076.06;;;16.74;58.93
34979;BME280;21185;50.978;13.720;2023-05-11T06:54:54;98071.97;;;16.91;58.46
34979;BME280;21185;50.978;13.720;2023-05-11T06:59:57;98068.50;;;17.04;58.07
34979;BME280;21185;50.978;13.720;2023-05-11T07:04:59;98068.63;;;17.15;58.21
34979;BME280;21185;50.978;13.720;2023-05-11T07:10:01;98072.59;;;17.31;58.08
34979;BME280;21185;50.978;13.720;2023-05-11T07:15:03;98072.53;;;17.44;57.69
34979;BME280;21185;50.978;13.720;2023-05-11T07:20:06;98068.81;;;17.59;58.03
34979;BME280;21185;50.978;13.720;2023-05-11T07:25:08;98064.91;;;17.74;57.91
34979;BME280;21185;50.978;13.720;2023-05-11T07:30:11;98072.88;;;17.86;57.33
34979;BME280;21185;50.978;13.720;2023-05-11T07:35:13;98078.28;;;17.91;57.38
34979;BME280;21185;50.978;13.720;2023-05-11T07:40:18;98081.13;;;17.90;56.68
34979;BME280;21185;50.978;13.720;2023-05-11T07:45:20;98083.44;;;18.04;56.39
34979;BME280;21185;50.978;13.720;2023-05-11T07:50:23;98078.09;;;18.18;56.08
34979;BME280;21185;50.978;13.720;2023-05-11T07:55:25;98080.00;;;18.29;55.83
34979;BME280;21185;50.978;13.720;2023-05-11T08:00:30;98084.34;;;18.41;55.65
34979;BME280;21185;50.978;13.720;2023-05-11T08:05:32;98089.38;;;18.43;55.43
34979;BME280;21185;50.978;13.720;2023-05-11T08:10:38;98087.97;;;18.40;54.93
34979;BME280;21185;50.978;13.720;2023-05-11T08:15:40;98092.59;;;18.45;54.69
34979;BME280;21185;50.978;13.720;2023-05-11T08:20:42;98094.50;;;18.56;54.16
34979;BME280;21185;50.978;13.720;2023-05-11T08:25:51;98088.94;;;18.71;53.34
34979;BME280;21185;50.978;13.720;2023-05-11T08:30:57;98086.22;;;18.77;53.10
34979;BME280;21185;50.978;13.720;2023-05-11T08:35:59;98092.22;;;18.85;52.65
34979;BME280;21185;50.978;13.720;2023-05-11T08:41:01;98094.09;;;18.96;52.65
34979;BME280;21185;50.978;13.720;2023-05-11T08:46:04;98094.91;;;19.15;52.42
34979;BME280;21185;50.978;13.720;2023-05-11T08:51:09;98089.25;;;19.29;52.20
34979;BME280;21185;50.978;13.720;2023-05-11T08:56:12;98099.69;;;19.36;52.21
34979;BME280;21185;50.978;13.720;2023-05-11T09:01:18;98090.69;;;19.44;51.38
34979;BME280;21185;50.978;13.720;2023-05-11T09:06:25;98087.09;;;19.56;50.94
34979;BME280;21185;50.978;13.720;2023-05-11T09:11:28;98090.34;;;19.70;51.00
34979;BME280;21185;50.978;13.720;2023-05-11T09:16:31;98087.50;;;19.83;50.66
34979;BME280;21185;50.978;13.720;2023-05-11T09:21:38;98085.22;;;19.87;50.34
34979;BME280;21185;50.978;13.720;2023-05-11T09:26:40;98085.22;;;19.87;49.58
34979;BME280;21185;50.978;13.720;2023-05-11T09:31:43;98086.72;;;19.94;49.77
34979;BME280;21185;50.978;13.720;2023-05-11T09:36:51;98085.38;;;20.03;49.01
34979;BME280;21185;50.978;13.720;2023-05-11T09:42:18;98083.22;;;20.24;48.49
34979;BME280;21185;50.978;13.720;2023-05-11T09:47:20;98080.13;;;20.27;49.27
34979;BME280;21185;50.978;13.720;2023-05-11T09:52:25;98077.03;;;20.30;49.07
34979;BME280;21185;50.978;13.720;2023-05-11T09:57:29;98083.59;;;20.39;49.06
34979;BME280;21185;50.978;13.720;2023-05-11T10:02:32;98081.75;;;20.51;48.94
34979;BME280;21185;50.978;13.720;2023-05-11T10:07:35;98075.44;;;20.52;48.14
34979;BME280;21185;50.978;13.720;2023-05-11T10:12:38;98069.97;;;20.42;48.05
34979;BME280;21185;50.978;13.720;2023-05-11T10:17:41;98072.25;;;20.50;47.36
34979;BME280;21185;50.978;13.720;2023-05-11T10:22:47;98084.16;;;20.53;46.91
34979;BME280;21185;50.978;13.720;2023-05-11T10:27:52;98090.81;;;20.55;46.25
34979;BME280;21185;50.978;13.720;2023-05-11T10:32:55;98081.88;;;20.56;46.07
34979;BME280;21185;50.978;13.720;2023-05-11T10:37:59;98073.59;;;20.64;46.07
34979;BME280;21185;50.978;13.720;2023-05-11T10:53:32;98084.25;;;20.69;45.86
34979;BME280;21185;50.978;13.720;2023-05-11T11:04:11;98083.69;;;20.79;45.46
34979;BME280;21185;50.978;13.720;2023-05-11T11:09:14;98081.16;;;20.73;45.08
34979;BME280;21185;50.978;13.720;2023-05-11T11:14:17;98080.94;;;20.74;45.42
34979;BME280;21185;50.978;13.720;2023-05-11T11:29:39;98086.31;;;20.79;45.08
34979;BME280;21185;50.978;13.720;2023-05-11T11:34:42;98083.19;;;20.82;45.13
34979;BME280;21185;50.978;13.720;2023-05-11T11:39:49;98084.56;;;20.85;44.90
34979;BME280;21185;50.978;13.720;2023-05-11T11:44:51;98088.50;;;20.71;44.85
34979;BME280;21185;50.978;13.720;2023-05-11T11:49:53;98084.72;;;20.66;45.01
34979;BME280;21185;50.978;13.720;2023-05-11T11:54:57;98094.91;;;20.75;44.79
34979;BME280;21185;50.978;13.720;2023-05-11T12:00:07;98093.56;;;20.60;44.55
34979;BME280;21185;50.978;13.720;2023-05-11T12:05:16;98090.59;;;20.45;44.61
34979;BME280;21185;50.978;13.720;2023-05-11T12:10:21;98094.47;;;20.43;45.07
34979;BME280;21185;50.978;13.720;2023-05-11T12:15:28;98094.00;;;20.34;44.73
34979;BME280;21185;50.978;13.720;2023-05-11T12:20:32;98088.47;;;20.24;44.85
34979;BME280;21185;50.978;13.720;2023-05-11T12:25:34;98100.16;;;20.16;44.96
34979;BME280;21185;50.978;13.720;2023-05-11T12:30:57;98103.34;;;20.07;44.43
34979;BME280;21185;50.978;13.720;2023-05-11T12:36:01;98107.81;;;20.06;44.96
34979;BME280;21185;50.978;13.720;2023-05-11T12:41:03;98101.41;;;20.02;44.43
34979;BME280;21185;50.978;13.720;2023-05-11T12:46:06;98103.56;;;19.93;44.66
34979;BME280;21185;50.978;13.720;2023-05-11T12:51:08;98116.81;;;19.87;44.50
34979;BME280;21185;50.978;13.720;2023-05-11T12:56:11;98106.53;;;19.85;44.52
34979;BME280;21185;50.978;13.720;2023-05-11T13:01:13;98108.69;;;19.88;44.75
34979;BME280;21185;50.978;13.720;2023-05-11T13:06:18;98105.63;;;19.91;44.31
34979;BME280;21185;50.978;13.720;2023-05-11T13:11:25;98100.47;;;19.96;44.08
34979;BME280;21185;50.978;13.720;2023-05-11T13:16:28;98096.94;;;20.02;43.95
34979;BME280;21185;50.978;13.720;2023-05-11T13:21:32;98092.47;;;20.03;43.81
34979;BME280;21185;50.978;13.720;2023-05-11T13:26:34;98092.59;;;20.08;43.59
34979;BME280;21185;50.978;13.720;2023-05-11T13:31:46;98095.34;;;20.25;43.48
34979;BME280;21185;50.978;13.720;2023-05-11T13:36:49;98086.22;;;20.39;43.43
34979;BME280;21185;50.978;13.720;2023-05-11T13:41:51;98083.13;;;20.54;43.34
34979;BME280;21185;50.978;13.720;2023-05-11T13:46:56;98081.28;;;20.66;43.12
34979;BME280;21185;50.978;13.720;2023-05-11T13:51:58;98079.28;;;20.85;42.99
34979;BME280;21185;50.978;13.720;2023-05-11T13:57:01;98068.13;;;20.94;42.84
34979;BME280;21185;50.978;13.720;2023-05-11T14:02:03;98076.72;;;21.01;42.41
34979;BME280;21185;50.978;13.720;2023-05-11T14:07:07;98069.13;;;21.05;42.67
34979;BME280;21185;50.978;13.720;2023-05-11T14:12:09;98073.38;;;21.06;42.53
34979;BME280;21185;50.978;13.720;2023-05-11T14:17:11;98071.81;;;20.93;42.41
34979;BME280;21185;50.978;13.720;2023-05-11T14:22:14;98072.41;;;20.84;41.69
34979;BME280;21185;50.978;13.720;2023-05-11T14:27:16;98063.13;;;20.81;41.71
34979;BME280;21185;50.978;13.720;2023-05-11T14:32:19;98062.56;;;20.79;41.05
34979;BME280;21185;50.978;13.720;2023-05-11T14:37:21;98067.13;;;20.84;40.31
34979;BME280;21185;50.978;13.720;2023-05-11T14:42:24;98051.63;;;20.87;40.22
34979;BME280;21185;50.978;13.720;2023-05-11T14:47:26;98057.44;;;21.01;40.19
34979;BME280;21185;50.978;13.720;2023-05-11T14:52:29;98062.06;;;20.94;39.82
34979;BME280;21185;50.978;13.720;2023-05-11T14:57:31;98062.09;;;20.82;39.65
34979;BME280;21185;50.978;13.720;2023-05-11T15:02:33;98065.22;;;20.67;39.76
34979;BME280;21185;50.978;13.720;2023-05-11T15:07:35;98070.19;;;20.52;39.60
34979;BME280;21185;50.978;13.720;2023-05-11T15:12:39;98073.84;;;20.40;39.23
34979;BME280;21185;50.978;13.720;2023-05-11T15:17:41;98080.50;;;20.42;39.50
34979;BME280;21185;50.978;13.720;2023-05-11T15:22:43;98087.03;;;20.40;39.23
34979;BME280;21185;50.978;13.720;2023-05-11T15:27:46;98083.78;;;20.37;38.81
34979;BME280;21185;50.978;13.720;2023-05-11T15:32:48;98084.81;;;20.36;38.89
34979;BME280;21185;50.978;13.720;2023-05-11T15:37:50;98093.09;;;20.40;38.92
34979;BME280;21185;50.978;13.720;2023-05-11T15:42:52;98089.78;;;20.45;38.87
34979;BME280;21185;50.978;13.720;2023-05-11T15:47:54;98089.66;;;20.40;38.74
34979;BME280;21185;50.978;13.720;2023-05-11T15:52:56;98092.72;;;20.36;38.57
34979;BME280;21185;50.978;13.720;2023-05-11T15:57:57;98091.94;;;20.36;38.36
34979;BME280;21185;50.978;13.720;2023-05-11T16:03:03;98095.97;;;20.39;38.32
34979;BME280;21185;50.978;13.720;2023-05-11T16:08:09;98093.69;;;20.42;38.65
34979;BME280;21185;50.978;13.720;2023-05-11T16:13:12;98098.94;;;20.42;38.88
34979;BME280;21185;50.978;13.720;2023-05-11T16:18:14;98101.25;;;20.39;38.94
34979;BME280;21185;50.978;13.720;2023-05-11T16:23:17;98105.56;;;20.33;38.93
34979;BME280;21185;50.978;13.720;2023-05-11T16:28:19;98107.41;;;20.32;39.04
34979;BME280;21185;50.978;13.720;2023-05-11T16:33:21;98101.31;;;20.32;39.24
34979;BME280;21185;50.978;13.720;2023-05-11T16:38:23;98101.19;;;20.27;39.09
34979;BME280;21185;50.978;13.720;2023-05-11T16:43:25;98101.44;;;20.25;39.45
34979;BME280;21185;50.978;13.720;2023-05-11T16:48:27;98105.19;;;20.18;38.91
34979;BME280;21185;50.978;13.720;2023-05-11T16:53:28;98110.22;;;20.08;38.59
34979;BME280;21185;50.978;13.720;2023-05-11T16:58:31;98101.06;;;19.98;38.30
34979;BME280;21185;50.978;13.720;2023-05-11T17:03:33;98110.09;;;19.91;38.06
34979;BME280;21185;50.978;13.720;2023-05-11T17:08:37;98119.69;;;19.85;38.30
34979;BME280;21185;50.978;13.720;2023-05-11T17:13:39;98123.34;;;19.84;38.06
34979;BME280;21185;50.978;13.720;2023-05-11T17:18:41;98126.44;;;19.81;38.10
34979;BME280;21185;50.978;13.720;2023-05-11T17:23:44;98127.31;;;19.75;38.31
34979;BME280;21185;50.978;13.720;2023-05-11T17:28:50;98129.25;;;19.68;38.51
34979;BME280;21185;50.978;13.720;2023-05-11T17:33:52;98139.66;;;19.63;38.74
34979;BME280;21185;50.978;13.720;2023-05-11T17:38:54;98138.94;;;19.56;38.57
34979;BME280;21185;50.978;13.720;2023-05-11T17:43:56;98143.22;;;19.50;38.58
34979;BME280;21185;50.978;13.720;2023-05-11T17:48:59;98146.75;;;19.44;38.65
34979;BME280;21185;50.978;13.720;2023-05-11T17:54:02;98152.09;;;19.37;38.82
34979;BME280;21185;50.978;13.720;2023-05-11T17:59:04;98162.47;;;19.32;39.25
34979;BME280;21185;50.978;13.720;2023-05-11T18:04:06;98164.38;;;19.25;39.25
34979;BME280;21185;50.978;13.720;2023-05-11T18:09:08;98173.16;;;19.19;38.96
34979;BME280;21185;50.978;13.720;2023-05-11T18:14:13;98176.22;;;19.16;39.40
34979;BME280;21185;50.978;13.720;2023-05-11T18:19:16;98175.03;;;19.12;39.38
34979;BME280;21185;50.978;13.720;2023-05-11T18:24:18;98180.75;;;19.09;39.34
34979;BME280;21185;50.978;13.720;2023-05-11T18:29:21;98194.31;;;19.06;39.54
34979;BME280;21185;50.978;13.720;2023-05-11T18:34:23;98192.56;;;19.00;39.47
34979;BME280;21185;50.978;13.720;2023-05-11T18:39:25;98201.31;;;18.94;39.72
34979;BME280;21185;50.978;13.720;2023-05-11T18:44:27;98205.41;;;18.90;39.90
34979;BME280;21185;50.978;13.720;2023-05-11T18:49:29;98211.09;;;18.87;39.82
34979;BME280;21185;50.978;13.720;2023-05-11T18:54:31;98213.56;;;18.82;40.30
34979;BME280;21185;50.978;13.720;2023-05-11T18:59:34;98218.66;;;18.76;40.07
34979;BME280;21185;50.978;13.720;2023-05-11T19:04:36;98223.78;;;18.71;40.07
34979;BME280;21185;50.978;13.720;2023-05-11T19:09:38;98230.84;;;18.71;40.33
34979;BME280;21185;50.978;13.720;2023-05-11T19:14:40;98236.31;;;18.69;40.25
34979;BME280;21185;50.978;13.720;2023-05-11T19:19:42;98239.97;;;18.68;40.44
34979;BME280;21185;50.978;13.720;2023-05-11T19:24:44;98244.03;;;18.64;40.73
34979;BME280;21185;50.978;13.720;2023-05-11T19:29:48;98255.56;;;18.63;40.60
34979;BME280;21185;50.978;13.720;2023-05-11T19:34:52;98252.53;;;18.60;41.15
34979;BME280;21185;50.978;13.720;2023-05-11T19:39:54;98254.00;;;18.56;41.44
34979;BME280;21185;50.978;13.720;2023-05-11T19:45:16;98246.53;;;18.53;41.87
34979;BME280;21185;50.978;13.720;2023-05-11T19:50:18;98250.38;;;18.50;41.88
34979;BME280;21185;50.978;13.720;2023-05-11T19:55:24;98258.69;;;18.47;42.48
34979;BME280;21185;50.978;13.720;2023-05-11T20:00:26;98258.94;;;18.39;43.21
34979;BME280;21185;50.978;13.720;2023-05-11T20:05:29;98257.19;;;18.33;43.31
34979;BME280;21185;50.978;13.720;2023-05-11T20:10:31;98262.25;;;18.28;43.85
34979;BME280;21185;50.978;13.720;2023-05-11T20:15:34;98254.22;;;18.23;43.78
34979;BME280;21185;50.978;13.720;2023-05-11T20:20:36;98254.84;;;18.18;44.46
34979;BME280;21185;50.978;13.720;2023-05-11T20:25:37;98255.47;;;18.13;44.94
34979;BME280;21185;50.978;13.720;2023-05-11T20:30:44;98248.44;;;18.07;44.71
34979;BME280;21185;50.978;13.720;2023-05-11T20:35:46;98255.50;;;18.07;44.91
34979;BME280;21185;50.978;13.720;2023-05-11T20:40:48;98258.34;;;18.05;45.18
34979;BME280;21185;50.978;13.720;2023-05-11T20:45:50;98262.78;;;18.05;45.56
34979;BME280;21185;50.978;13.720;2023-05-11T20:50:54;98265.63;;;18.03;45.32
34979;BME280;21185;50.978;13.720;2023-05-11T20:55:56;98265.84;;;18.02;45.35
34979;BME280;21185;50.978;13.720;2023-05-11T21:01:01;98259.78;;;18.01;46.06
34979;BME280;21185;50.978;13.720;2023-05-11T21:06:04;98268.06;;;17.98;45.99
34979;BME280;21185;50.978;13.720;2023-05-11T21:11:06;98265.66;;;17.97;46.07
34979;BME280;21185;50.978;13.720;2023-05-11T21:16:08;98252.53;;;17.97;46.12
34979;BME280;21185;50.978;13.720;2023-05-11T21:21:10;98259.41;;;17.98;45.96
34979;BME280;21185;50.978;13.720;2023-05-11T21:26:13;98259.00;;;17.94;46.24
34979;BME280;21185;50.978;13.720;2023-05-11T21:31:15;98264.06;;;17.89;46.62
34979;BME280;21185;50.978;13.720;2023-05-11T21:36:18;98258.66;;;17.84;46.96
34979;BME280;21185;50.978;13.720;2023-05-11T21:41:20;98255.84;;;17.79;47.00
34979;BME280;21185;50.978;13.720;2023-05-11T21:46:22;98259.69;;;17.76;47.21
34979;BME280;21185;50.978;13.720;2023-05-11T21:51:24;98265.34;;;17.73;47.32
34979;BME280;21185;50.978;13.720;2023-05-11T21:56:26;98265.78;;;17.70;47.50
34979;BME280;21185;50.978;13.720;2023-05-11T22:01:27;98263.75;;;17.66;47.45
34979;BME280;21185;50.978;13.720;2023-05-11T22:06:29;98268.59;;;17.62;47.58
34979;BME280;21185;50.978;13.720;2023-05-11T22:11:34;98266.59;;;17.58;47.67
34979;BME280;21185;50.978;13.720;2023-05-11T22:16:38;98269.22;;;17.58;47.74
34979;BME280;21185;50.978;13.720;2023-05-11T22:21:40;98266.59;;;17.58;47.39
34979;BME280;21185;50.978;13.720;2023-05-11T22:26:43;98258.13;;;17.56;47.35
34979;BME280;21185;50.978;13.720;2023-05-11T22:31:45;98263.38;;;17.56;47.56
34979;BME280;21185;50.978;13.720;2023-05-11T22:36:47;98270.63;;;17.54;47.29
34979;BME280;21185;50.978;13.720;2023-05-11T22:41:49;98269.03;;;17.53;47.65
34979;BME280;21185;50.978;13.720;2023-05-11T22:46:51;98277.09;;;17.51;47.67
34979;BME280;21185;50.978;13.720;2023-05-11T22:51:53;98265.22;;;17.48;48.24
34979;BME280;21185;50.978;13.720;2023-05-11T22:57:01;98263.59;;;17.47;48.28
34979;BME280;21185;50.978;13.720;2023-05-11T23:02:04;98270.66;;;17.47;48.10
34979;BME280;21185;50.978;13.720;2023-05-11T23:07:06;98276.09;;;17.45;48.29
34979;BME280;21185;50.978;13.720;2023-05-11T23:12:09;98270.66;;;17.40;48.41
34979;BME280;21185;50.978;13.720;2023-05-11T23:17:11;98258.78;;;17.38;48.28
34979;BME280;21185;50.978;13.720;2023-05-11T23:22:13;98259.19;;;17.35;48.43
34979;BME280;21185;50.978;13.720;2023-05-11T23:27:15;98262.00;;;17.33;48.19
34979;BME280;21185;50.978;13.720;2023-05-11T23:32:17;98263.03;;;17.32;48.23
34979;BME280;21185;50.978;13.720;2023-05-11T23:37:19;98256.56;;;17.28;48.32
34979;BME280;21185;50.978;13.720;2023-05-11T23:42:22;98252.75;;;17.24;48.42
34979;BME280;21185;50.978;13.720;2023-05-11T23:47:24;98247.50;;;17.24;48.64
34979;BME280;21185;50.978;13.720;2023-05-11T23:52:27;98253.16;;;17.21;49.00
34979;BME280;21185;50.978;13.720;2023-05-11T23:57:30;98246.91;;;17.22;48.62
